< Typhoon 196709 1967 Season Typhoon 196711 >
Typhoon 196710 (NO-NAME)
General InformationTrack Information on Google Maps || Disaster Info.ResourceGoogle EarthGE AnimationAtom FeedGeoJSON
Detalied Best Track (Time Zone = UTC)
Year Month Day Hour Lat. Long. Pressure (hPa) Wind (kt) Class Image Chart
1967 7 19 18 19.3 147.6 1004 0 2 -- Chart
1967 7 20 00 20.1 148.0 1004 0 2 -- Chart
1967 7 20 06 20.5 147.6 1004 0 2 -- Chart
1967 7 20 12 20.9 147.5 1004 0 2 -- Chart
1967 7 20 18 21.3 147.3 1002 0 2 -- Chart
1967 7 21 00 21.5 147.0 1000 0 2 -- Chart
1967 7 21 06 21.8 146.6 998 0 2 -- Chart
1967 7 21 12 22.1 146.0 995 0 9 -- Chart
1967 7 21 18 22.4 145.6 992 0 9 -- Chart
1967 7 22 00 22.7 145.0 990 0 9 -- Chart
1967 7 22 06 23.1 144.1 980 0 9 -- Chart
1967 7 22 12 24.6 143.2 975 0 9 -- Chart
1967 7 22 18 26.0 141.9 975 0 9 -- Chart
1967 7 23 00 27.1 140.0 985 0 9 -- Chart
1967 7 23 06 27.4 138.2 985 0 9 -- Chart
1967 7 23 12 27.3 136.2 985 0 9 -- Chart
1967 7 23 18 27.1 135.0 985 0 9 -- Chart
1967 7 24 00 27.6 134.7 982 0 9 -- Chart
1967 7 24 06 28.9 133.9 985 0 9 -- Chart
1967 7 24 12 29.6 132.0 988 0 9 -- Chart
1967 7 24 18 29.3 131.3 982 0 9 -- Chart
1967 7 25 00 29.3 130.5 978 0 9 -- Chart
1967 7 25 06 30.1 130.0 984 0 9 -- Chart
1967 7 25 12 29.9 129.2 984 0 9 -- Chart
1967 7 25 18 30.4 129.0 984 0 9 -- Chart
1967 7 26 00 31.0 128.5 980 0 9 -- Chart
1967 7 26 06 31.4 127.3 976 0 9 -- Chart
1967 7 26 12 31.6 126.4 976 0 9 -- Chart
1967 7 26 18 31.9 125.5 978 0 9 -- Chart
1967 7 27 00 32.1 125.0 978 0 9 -- Chart
1967 7 27 06 32.4 124.5 980 0 9 -- Chart
1967 7 27 12 33.0 124.0 982 0 9 -- Chart
1967 7 27 18 33.6 123.3 984 0 9 -- Chart
1967 7 28 00 34.7 122.8 988 0 9 -- Chart
1967 7 28 06 35.6 122.4 990 0 9 -- Chart
1967 7 28 12 36.1 122.0 992 0 9 -- Chart
1967 7 28 18 36.8 121.8 994 0 2 -- Chart
1967 7 29 00 37.4 121.5 996 0 2 -- Chart
1967 7 29 06 38.0 121.2 994 0 2 -- Chart
1967 7 29 12 39.3 121.1 996 0 2 -- Chart
1967 7 29 18 40.6 121.3 998 0 2 -- Chart
1967 7 30 00 42.0 122.1 1000 0 6 -- Chart
1967 7 30 06 43.2 124.0 1002 0 6 -- Chart
1967 7 30 12 44.0 126.0 1002 0 6 -- Chart
1967 7 30 18 46.0 130.0 1001 0 6 -- Chart
1967 7 31 00 47.0 132.0 1002 0 6 -- Chart
1967 7 31 06 48.0 133.9 1001 0 6 -- Chart
1967 7 31 12 49.3 134.0 1000 0 6 -- Chart
Japan Meteorological Agency Best Track Data | Correction Date : 2013-03-19
< Typhoon 196709 1967 Season Typhoon 196711 >

Help